createdAt,value
2016-07-24T00:01:10.776Z,1007.03
2016-07-24T00:16:15.729Z,1007.14
2016-07-24T00:31:17.102Z,1007.16
2016-07-24T00:46:10.806Z,1007.1
2016-07-24T01:01:22.026Z,1007.22
2016-07-24T01:16:15.423Z,1007.17
2016-07-24T01:31:15.777Z,1007.13
2016-07-24T01:46:22.006Z,1007.11
2016-07-24T02:01:23.714Z,1007.18
2016-07-24T02:16:10.861Z,1007.2
2016-07-24T02:31:16.975Z,1007.31
2016-07-24T02:46:10.879Z,1007.28
2016-07-24T03:01:23.847Z,1007.14
2016-07-24T03:16:15.834Z,1007.12
2016-07-24T03:31:15.875Z,1007
2016-07-24T03:46:10.947Z,1006.96
2016-07-24T04:01:15.965Z,1007.22
2016-07-24T04:16:14.988Z,1007.07
2016-07-24T04:31:15.536Z,1007.03
2016-07-24T04:46:13.898Z,1006.97
2016-07-24T05:01:15.558Z,1007.1
2016-07-24T05:16:13.074Z,1007.02
2016-07-24T05:31:26.297Z,1006.95
2016-07-24T05:46:19.712Z,1006.88
2016-07-24T06:01:15.581Z,1006.9
2016-07-24T06:16:10.986Z,1006.81
2016-07-24T06:31:21.215Z,1006.91
2016-07-24T06:46:17.262Z,1007.05
2016-07-24T07:01:15.599Z,1007.05
2016-07-24T07:16:11.020Z,1007.06
2016-07-24T07:31:11.019Z,1007.1
2016-07-24T07:46:11.023Z,1006.95
2016-07-24T08:01:11.097Z,1007.17
2016-07-24T08:16:11.058Z,1007.28
2016-07-24T08:31:11.058Z,1008.93
2016-07-24T08:46:11.072Z,1023.53
2016-07-24T09:01:11.129Z,1108.24
2016-07-24T09:16:24.265Z,1108.3
2016-07-24T09:31:13.085Z,1108.26
2016-07-24T09:46:19.344Z,1108.24
2016-07-24T10:01:11.181Z,1108.24
2016-07-24T10:16:13.217Z,1108.3
2016-07-24T10:31:11.124Z,1108.32
2016-07-24T10:46:11.138Z,1108.28
2016-07-24T11:01:15.301Z,1108.22
2016-07-24T11:16:16.076Z,1108.28
2016-07-24T11:31:11.999Z,1108.26
2016-07-24T11:46:11.155Z,1108.24
2016-07-24T12:01:13.266Z,1108.24
2016-07-24T12:16:11.230Z,1108.33
2016-07-24T12:31:11.180Z,1108.28
2016-07-24T12:46:11.187Z,1108.22
2016-07-24T13:01:15.309Z,1108.33
2016-07-24T13:16:13.364Z,1108.26
2016-07-24T13:31:11.231Z,1108.26
2016-07-24T13:46:11.230Z,1108.22
2016-07-24T14:01:11.232Z,1108.28
2016-07-24T14:16:15.398Z,1108.28
2016-07-24T14:31:21.570Z,1108.28
2016-07-24T14:46:13.382Z,1108.28
2016-07-24T15:01:13.371Z,1108.33
2016-07-24T15:16:11.273Z,1108.26
2016-07-24T15:31:14.242Z,1108.26
2016-07-24T15:46:11.293Z,1108.3
2016-07-24T16:01:13.411Z,1108.24
2016-07-24T16:16:15.888Z,1108.28
2016-07-24T16:31:11.325Z,1108.32
2016-07-24T16:46:11.378Z,1108.26
2016-07-24T17:01:19.564Z,1108.3
2016-07-24T17:16:11.361Z,1108.3
2016-07-24T17:31:15.958Z,1108.22
2016-07-24T17:46:16.354Z,1108.24
2016-07-24T18:01:20.006Z,1108.3
2016-07-24T18:16:16.439Z,1108.24
2016-07-24T18:31:17.710Z,1108.26
2016-07-24T18:46:13.545Z,1108.28
2016-07-24T19:16:11.434Z,1006.41
2016-07-24T19:31:11.440Z,1006.45
2016-07-24T19:46:16.032Z,1006.44
2016-07-24T20:01:16.431Z,1006.65
2016-07-24T20:16:16.043Z,1006.49
2016-07-24T20:31:16.108Z,1006.51
2016-07-24T20:46:17.677Z,1006.6
2016-07-24T21:01:22.862Z,1006.54
2016-07-24T21:16:24.283Z,1007.12
2016-07-24T21:31:11.483Z,1006.93
2016-07-24T21:46:11.479Z,1006.64
2016-07-24T22:01:11.490Z,1006.59
2016-07-24T22:16:11.539Z,1006.52
2016-07-24T22:31:16.096Z,1006.37
2016-07-24T22:46:25.734Z,1006.97
2016-07-24T23:01:17.616Z,1108.26
2016-07-24T23:16:24.812Z,1108.28
2016-07-24T23:31:16.563Z,1108.3
2016-07-24T23:46:16.124Z,1108.26
